sensor_id;sensor_type;location;lat;lon;timestamp;temperature;humidity
73777;DHT22;62088;50.240;2.696;2022-12-18T00:01:22;-3273.10;83.80
73777;DHT22;62088;50.240;2.696;2022-12-18T00:03:50;-3273.00;83.70
73777;DHT22;62088;50.240;2.696;2022-12-18T00:06:18;-3273.00;83.60
73777;DHT22;62088;50.240;2.696;2022-12-18T00:08:45;-3272.90;83.60
73777;DHT22;62088;50.240;2.696;2022-12-18T00:11:15;-3272.90;83.60
73777;DHT22;62088;50.240;2.696;2022-12-18T00:13:43;-3272.90;83.50
73777;DHT22;62088;50.240;2.696;2022-12-18T00:16:13;-3272.90;83.40
73777;DHT22;62088;50.240;2.696;2022-12-18T00:18:41;-3272.80;83.40
73777;DHT22;62088;50.240;2.696;2022-12-18T00:21:10;-3272.80;83.30
73777;DHT22;62088;50.240;2.696;2022-12-18T00:23:39;-3272.80;83.30
73777;DHT22;62088;50.240;2.696;2022-12-18T00:26:12;-3272.80;83.20
73777;DHT22;62088;50.240;2.696;2022-12-18T00:28:39;-3272.70;83.10
73777;DHT22;62088;50.240;2.696;2022-12-18T00:31:14;-3272.70;83.10
73777;DHT22;62088;50.240;2.696;2022-12-18T00:33:41;-3272.70;83.10
73777;DHT22;62088;50.240;2.696;2022-12-18T00:36:14;-3272.70;83.10
73777;DHT22;62088;50.240;2.696;2022-12-18T00:38:41;-3272.70;83.10
73777;DHT22;62088;50.240;2.696;2022-12-18T00:41:10;-3272.70;83.10
73777;DHT22;62088;50.240;2.696;2022-12-18T00:43:38;-3272.70;83.00
73777;DHT22;62088;50.240;2.696;2022-12-18T00:46:06;-3272.60;83.00
73777;DHT22;62088;50.240;2.696;2022-12-18T00:48:33;-3272.60;83.00
73777;DHT22;62088;50.240;2.696;2022-12-18T00:51:00;-3272.60;83.00
73777;DHT22;62088;50.240;2.696;2022-12-18T00:53:27;-3272.60;83.00
73777;DHT22;62088;50.240;2.696;2022-12-18T00:55:55;-3272.60;83.00
73777;DHT22;62088;50.240;2.696;2022-12-18T00:58:22;-3272.60;83.00
73777;DHT22;62088;50.240;2.696;2022-12-18T01:00:50;-3272.60;83.00
73777;DHT22;62088;50.240;2.696;2022-12-18T01:03:17;-3272.60;83.00
73777;DHT22;62088;50.240;2.696;2022-12-18T01:05:44;-3272.60;83.00
73777;DHT22;62088;50.240;2.696;2022-12-18T01:08:11;-3272.50;83.00
73777;DHT22;62088;50.240;2.696;2022-12-18T01:10:40;-3272.50;83.00
73777;DHT22;62088;50.240;2.696;2022-12-18T01:13:08;-3272.60;83.10
73777;DHT22;62088;50.240;2.696;2022-12-18T01:15:35;-3272.50;83.10
73777;DHT22;62088;50.240;2.696;2022-12-18T01:18:02;-3272.50;83.10
73777;DHT22;62088;50.240;2.696;2022-12-18T01:20:29;-3272.50;83.10
73777;DHT22;62088;50.240;2.696;2022-12-18T01:22:57;-3272.50;83.10
73777;DHT22;62088;50.240;2.696;2022-12-18T01:25:24;-3272.50;83.10
73777;DHT22;62088;50.240;2.696;2022-12-18T01:27:51;-3272.50;83.00
73777;DHT22;62088;50.240;2.696;2022-12-18T01:30:18;-3272.50;83.00
73777;DHT22;62088;50.240;2.696;2022-12-18T01:32:45;-3272.50;83.00
73777;DHT22;62088;50.240;2.696;2022-12-18T01:35:12;-3272.50;83.00
73777;DHT22;62088;50.240;2.696;2022-12-18T01:37:39;-3272.50;83.00
73777;DHT22;62088;50.240;2.696;2022-12-18T01:40:07;-3272.50;83.00
73777;DHT22;62088;50.240;2.696;2022-12-18T01:42:34;-3272.50;83.00
73777;DHT22;62088;50.240;2.696;2022-12-18T01:47:51;-3272.40;83.00
73777;DHT22;62088;50.240;2.696;2022-12-18T01:50:23;-3272.40;83.00
73777;DHT22;62088;50.240;2.696;2022-12-18T01:52:55;-3272.50;82.90
73777;DHT22;62088;50.240;2.696;2022-12-18T01:55:25;-3272.50;82.80
73777;DHT22;62088;50.240;2.696;2022-12-18T01:57:56;-3272.40;82.80
73777;DHT22;62088;50.240;2.696;2022-12-18T02:00:24;-3272.40;82.80
73777;DHT22;62088;50.240;2.696;2022-12-18T02:02:53;-3272.40;82.80
73777;DHT22;62088;50.240;2.696;2022-12-18T02:08:22;-3272.40;82.70
73777;DHT22;62088;50.240;2.696;2022-12-18T02:16:19;-3272.30;82.50
73777;DHT22;62088;50.240;2.696;2022-12-18T02:18:52;-3272.40;82.60
73777;DHT22;62088;50.240;2.696;2022-12-18T02:26:56;-3272.30;82.60
73777;DHT22;62088;50.240;2.696;2022-12-18T02:29:36;-3272.30;82.60
73777;DHT22;62088;50.240;2.696;2022-12-18T02:32:10;-3272.30;82.60
73777;DHT22;62088;50.240;2.696;2022-12-18T02:34:39;-3272.30;82.60
73777;DHT22;62088;50.240;2.696;2022-12-18T02:37:14;-3272.30;82.60
73777;DHT22;62088;50.240;2.696;2022-12-18T02:39:44;-3272.30;82.60
73777;DHT22;62088;50.240;2.696;2022-12-18T02:42:14;-3272.30;82.60
73777;DHT22;62088;50.240;2.696;2022-12-18T02:44:50;-3272.30;82.60
73777;DHT22;62088;50.240;2.696;2022-12-18T02:47:24;-3272.30;82.50
73777;DHT22;62088;50.240;2.696;2022-12-18T02:50:08;-3272.20;82.50
73777;DHT22;62088;50.240;2.696;2022-12-18T02:53:42;-3272.20;82.50
73777;DHT22;62088;50.240;2.696;2022-12-18T02:55:57;-3272.20;82.50
73777;DHT22;62088;50.240;2.696;2022-12-18T03:04:20;-3272.20;82.40
73777;DHT22;62088;50.240;2.696;2022-12-18T03:06:53;-3272.20;82.30
73777;DHT22;62088;50.240;2.696;2022-12-18T03:09:27;-3272.10;82.30
73777;DHT22;62088;50.240;2.696;2022-12-18T03:12:04;-3272.20;82.20
73777;DHT22;62088;50.240;2.696;2022-12-18T03:17:23;-3272.10;82.20
73777;DHT22;62088;50.240;2.696;2022-12-18T03:19:53;-3272.10;82.20
73777;DHT22;62088;50.240;2.696;2022-12-18T03:22:24;-3272.10;82.20
73777;DHT22;62088;50.240;2.696;2022-12-18T03:24:55;-3272.10;82.20
73777;DHT22;62088;50.240;2.696;2022-12-18T03:27:24;-3272.10;82.10
73777;DHT22;62088;50.240;2.696;2022-12-18T03:30:04;-3272.10;82.10
73777;DHT22;62088;50.240;2.696;2022-12-18T03:32:48;-3272.10;82.10
73777;DHT22;62088;50.240;2.696;2022-12-18T03:35:30;-3272.10;82.00
73777;DHT22;62088;50.240;2.696;2022-12-18T03:37:58;-3272.10;81.90
73777;DHT22;62088;50.240;2.696;2022-12-18T03:41:33;-3272.10;81.90
73777;DHT22;62088;50.240;2.696;2022-12-18T03:51:51;-3272.00;81.70
73777;DHT22;62088;50.240;2.696;2022-12-18T03:54:20;-3271.90;81.70
73777;DHT22;62088;50.240;2.696;2022-12-18T03:57:02;-3271.90;81.70
73777;DHT22;62088;50.240;2.696;2022-12-18T03:59:30;-3272.00;81.80
73777;DHT22;62088;50.240;2.696;2022-12-18T04:01:59;-3271.90;81.90
73777;DHT22;62088;50.240;2.696;2022-12-18T04:04:29;-3271.90;81.90
73777;DHT22;62088;50.240;2.696;2022-12-18T04:07:00;-3271.90;82.00
73777;DHT22;62088;50.240;2.696;2022-12-18T04:09:27;-3271.90;82.10
73777;DHT22;62088;50.240;2.696;2022-12-18T04:11:55;-3271.90;82.10
73777;DHT22;62088;50.240;2.696;2022-12-18T04:14:22;-3271.90;82.20
73777;DHT22;62088;50.240;2.696;2022-12-18T04:16:53;-3271.90;82.30
73777;DHT22;62088;50.240;2.696;2022-12-18T04:19:27;-3271.90;82.40
73777;DHT22;62088;50.240;2.696;2022-12-18T04:21:54;-3272.00;82.50
73777;DHT22;62088;50.240;2.696;2022-12-18T04:24:21;-3271.90;82.50
73777;DHT22;62088;50.240;2.696;2022-12-18T04:27:11;-3272.00;82.60
73777;DHT22;62088;50.240;2.696;2022-12-18T04:29:43;-3272.00;82.60
73777;DHT22;62088;50.240;2.696;2022-12-18T04:32:10;-3272.00;82.60
73777;DHT22;62088;50.240;2.696;2022-12-18T04:34:38;-3272.00;82.60
73777;DHT22;62088;50.240;2.696;2022-12-18T04:37:06;-3272.10;82.60
73777;DHT22;62088;50.240;2.696;2022-12-18T04:39:33;-3272.10;82.60
73777;DHT22;62088;50.240;2.696;2022-12-18T04:42:05;-3272.10;82.60
73777;DHT22;62088;50.240;2.696;2022-12-18T04:44:33;-3272.10;82.50
73777;DHT22;62088;50.240;2.696;2022-12-18T04:47:00;-3272.10;82.50
73777;DHT22;62088;50.240;2.696;2022-12-18T04:49:27;-3272.10;82.50
73777;DHT22;62088;50.240;2.696;2022-12-18T04:51:54;-3272.10;82.50
73777;DHT22;62088;50.240;2.696;2022-12-18T04:54:22;-3272.10;82.50
73777;DHT22;62088;50.240;2.696;2022-12-18T04:56:49;-3272.10;82.50
73777;DHT22;62088;50.240;2.696;2022-12-18T04:59:16;-3272.10;82.50
73777;DHT22;62088;50.240;2.696;2022-12-18T05:01:43;-3272.10;82.50
73777;DHT22;62088;50.240;2.696;2022-12-18T05:04:10;-3272.10;82.50
73777;DHT22;62088;50.240;2.696;2022-12-18T05:06:37;-3272.10;82.50
73777;DHT22;62088;50.240;2.696;2022-12-18T05:09:04;-3272.10;82.50
73777;DHT22;62088;50.240;2.696;2022-12-18T05:11:31;-3272.10;82.50
73777;DHT22;62088;50.240;2.696;2022-12-18T05:13:58;-3272.10;82.50
73777;DHT22;62088;50.240;2.696;2022-12-18T05:16:25;-3272.10;82.40
73777;DHT22;62088;50.240;2.696;2022-12-18T05:18:52;-3272.10;82.40
73777;DHT22;62088;50.240;2.696;2022-12-18T05:21:19;-3272.10;82.40
73777;DHT22;62088;50.240;2.696;2022-12-18T05:23:46;-3272.10;82.40
73777;DHT22;62088;50.240;2.696;2022-12-18T05:26:17;-3272.10;82.40
73777;DHT22;62088;50.240;2.696;2022-12-18T05:28:45;-3272.10;82.40
73777;DHT22;62088;50.240;2.696;2022-12-18T05:31:13;-3272.10;82.40
73777;DHT22;62088;50.240;2.696;2022-12-18T05:33:41;-3272.10;82.30
73777;DHT22;62088;50.240;2.696;2022-12-18T05:36:09;-3272.10;82.40
73777;DHT22;62088;50.240;2.696;2022-12-18T05:38:38;-3272.10;82.30
73777;DHT22;62088;50.240;2.696;2022-12-18T05:41:06;-3272.10;82.40
73777;DHT22;62088;50.240;2.696;2022-12-18T05:43:35;-3272.10;82.40
73777;DHT22;62088;50.240;2.696;2022-12-18T05:46:07;-3272.10;82.40
73777;DHT22;62088;50.240;2.696;2022-12-18T05:48:35;-3272.10;82.40
73777;DHT22;62088;50.240;2.696;2022-12-18T05:51:12;-3272.10;82.40
73777;DHT22;62088;50.240;2.696;2022-12-18T05:53:41;-3272.10;82.40
73777;DHT22;62088;50.240;2.696;2022-12-18T05:56:12;-3272.10;82.40
73777;DHT22;62088;50.240;2.696;2022-12-18T05:58:40;-3272.10;82.40
73777;DHT22;62088;50.240;2.696;2022-12-18T06:03:39;-3272.10;82.40
73777;DHT22;62088;50.240;2.696;2022-12-18T06:06:33;-3272.10;82.40
73777;DHT22;62088;50.240;2.696;2022-12-18T06:09:00;-3272.10;82.40
73777;DHT22;62088;50.240;2.696;2022-12-18T06:11:28;-3272.10;82.40
73777;DHT22;62088;50.240;2.696;2022-12-18T06:13:56;-3272.10;82.40
73777;DHT22;62088;50.240;2.696;2022-12-18T06:16:27;-3272.10;82.40
73777;DHT22;62088;50.240;2.696;2022-12-18T06:19:02;-3272.10;82.40
73777;DHT22;62088;50.240;2.696;2022-12-18T06:21:30;-3272.10;82.50
73777;DHT22;62088;50.240;2.696;2022-12-18T06:23:57;-3272.10;82.50
73777;DHT22;62088;50.240;2.696;2022-12-18T06:26:25;-3272.10;82.50
73777;DHT22;62088;50.240;2.696;2022-12-18T06:28:55;-3272.10;82.50
73777;DHT22;62088;50.240;2.696;2022-12-18T06:31:24;-3272.10;82.50
73777;DHT22;62088;50.240;2.696;2022-12-18T06:33:52;-3272.10;82.50
73777;DHT22;62088;50.240;2.696;2022-12-18T06:36:19;-3272.10;82.50
73777;DHT22;62088;50.240;2.696;2022-12-18T06:38:47;-3272.10;82.50
73777;DHT22;62088;50.240;2.696;2022-12-18T06:41:18;-3272.10;82.50
73777;DHT22;62088;50.240;2.696;2022-12-18T06:43:45;-3272.10;82.40
73777;DHT22;62088;50.240;2.696;2022-12-18T06:46:13;-3272.10;82.50
73777;DHT22;62088;50.240;2.696;2022-12-18T06:48:40;-3272.10;82.50
73777;DHT22;62088;50.240;2.696;2022-12-18T06:51:07;-3272.10;82.50
73777;DHT22;62088;50.240;2.696;2022-12-18T06:53:34;-3272.10;82.60
73777;DHT22;62088;50.240;2.696;2022-12-18T06:56:03;-3272.10;82.60
73777;DHT22;62088;50.240;2.696;2022-12-18T06:58:36;-3272.10;82.60
73777;DHT22;62088;50.240;2.696;2022-12-18T07:01:05;-3272.10;82.70
73777;DHT22;62088;50.240;2.696;2022-12-18T07:03:32;-3272.10;82.70
73777;DHT22;62088;50.240;2.696;2022-12-18T07:05:59;-3272.10;82.80
73777;DHT22;62088;50.240;2.696;2022-12-18T07:08:26;-3272.10;82.80
73777;DHT22;62088;50.240;2.696;2022-12-18T07:10:55;-3272.10;82.80
73777;DHT22;62088;50.240;2.696;2022-12-18T07:13:22;-3272.20;82.80
73777;DHT22;62088;50.240;2.696;2022-12-18T07:15:49;-3272.20;82.80
73777;DHT22;62088;50.240;2.696;2022-12-18T07:18:16;-3272.20;82.70
73777;DHT22;62088;50.240;2.696;2022-12-18T07:20:44;-3272.20;82.80
73777;DHT22;62088;50.240;2.696;2022-12-18T07:23:13;-3272.20;82.70
73777;DHT22;62088;50.240;2.696;2022-12-18T07:25:40;-3272.20;82.80
73777;DHT22;62088;50.240;2.696;2022-12-18T07:28:07;-3272.20;82.80
73777;DHT22;62088;50.240;2.696;2022-12-18T07:30:41;-3272.20;82.80
73777;DHT22;62088;50.240;2.696;2022-12-18T07:33:08;-3272.30;82.90
73777;DHT22;62088;50.240;2.696;2022-12-18T07:35:35;-3272.30;83.00
73777;DHT22;62088;50.240;2.696;2022-12-18T07:38:02;-3272.30;83.00
73777;DHT22;62088;50.240;2.696;2022-12-18T07:40:29;-3272.30;83.10
73777;DHT22;62088;50.240;2.696;2022-12-18T07:42:56;-3272.40;83.00
73777;DHT22;62088;50.240;2.696;2022-12-18T07:45:23;-3272.40;83.00
73777;DHT22;62088;50.240;2.696;2022-12-18T07:47:50;-3272.40;83.10
73777;DHT22;62088;50.240;2.696;2022-12-18T07:50:17;-3272.50;83.10
73777;DHT22;62088;50.240;2.696;2022-12-18T07:52:44;-3272.50;83.00
73777;DHT22;62088;50.240;2.696;2022-12-18T07:55:11;-3272.50;82.90
73777;DHT22;62088;50.240;2.696;2022-12-18T07:57:38;-3272.50;82.80
73777;DHT22;62088;50.240;2.696;2022-12-18T08:00:18;-3272.60;82.80
73777;DHT22;62088;50.240;2.696;2022-12-18T08:02:47;-3272.60;82.80
73777;DHT22;62088;50.240;2.696;2022-12-18T08:05:14;-3272.60;82.80
73777;DHT22;62088;50.240;2.696;2022-12-18T08:07:41;-3272.70;82.80
73777;DHT22;62088;50.240;2.696;2022-12-18T08:10:08;-3272.70;82.80
73777;DHT22;62088;50.240;2.696;2022-12-18T08:12:35;-3272.70;82.80
73777;DHT22;62088;50.240;2.696;2022-12-18T08:15:03;-3272.70;82.80
73777;DHT22;62088;50.240;2.696;2022-12-18T08:17:30;-3272.70;82.70
73777;DHT22;62088;50.240;2.696;2022-12-18T08:19:57;-3272.70;82.70
73777;DHT22;62088;50.240;2.696;2022-12-18T08:22:24;-3272.70;82.60
73777;DHT22;62088;50.240;2.696;2022-12-18T08:24:52;-3272.80;82.60
73777;DHT22;62088;50.240;2.696;2022-12-18T08:27:18;-3272.80;82.70
73777;DHT22;62088;50.240;2.696;2022-12-18T08:29:56;-3272.80;82.70
73777;DHT22;62088;50.240;2.696;2022-12-18T08:32:24;-3272.80;82.70
73777;DHT22;62088;50.240;2.696;2022-12-18T08:34:51;-3272.80;82.70
73777;DHT22;62088;50.240;2.696;2022-12-18T08:37:18;-3272.80;82.70
73777;DHT22;62088;50.240;2.696;2022-12-18T08:39:45;-3272.80;82.70
73777;DHT22;62088;50.240;2.696;2022-12-18T08:42:12;-3272.80;82.70
73777;DHT22;62088;50.240;2.696;2022-12-18T08:45:00;-3272.80;82.70
73777;DHT22;62088;50.240;2.696;2022-12-18T08:47:27;-3272.90;82.80
73777;DHT22;62088;50.240;2.696;2022-12-18T08:49:54;-3272.90;82.80
73777;DHT22;62088;50.240;2.696;2022-12-18T08:52:21;-3272.90;82.80
73777;DHT22;62088;50.240;2.696;2022-12-18T08:54:48;-3272.90;82.80
73777;DHT22;62088;50.240;2.696;2022-12-18T08:57:15;-3272.90;83.00
73777;DHT22;62088;50.240;2.696;2022-12-18T08:59:46;-3272.90;83.00
73777;DHT22;62088;50.240;2.696;2022-12-18T09:02:13;-3272.90;83.00
73777;DHT22;62088;50.240;2.696;2022-12-18T09:04:40;-3273.00;83.10
73777;DHT22;62088;50.240;2.696;2022-12-18T09:07:08;-3273.00;83.20
73777;DHT22;62088;50.240;2.696;2022-12-18T09:09:36;-3273.00;83.20
73777;DHT22;62088;50.240;2.696;2022-12-18T09:12:03;-3273.10;83.20
73777;DHT22;62088;50.240;2.696;2022-12-18T09:14:30;-3273.10;83.20
73777;DHT22;62088;50.240;2.696;2022-12-18T09:16:57;-3273.10;83.10
73777;DHT22;62088;50.240;2.696;2022-12-18T09:19:24;-3273.10;83.10
73777;DHT22;62088;50.240;2.696;2022-12-18T09:21:51;-3273.20;83.00
73777;DHT22;62088;50.240;2.696;2022-12-18T09:24:18;-3273.20;83.10
73777;DHT22;62088;50.240;2.696;2022-12-18T09:26:46;-3273.20;83.00
73777;DHT22;62088;50.240;2.696;2022-12-18T09:29:15;-3273.30;82.90
73777;DHT22;62088;50.240;2.696;2022-12-18T09:31:45;-3273.30;82.90
73777;DHT22;62088;50.240;2.696;2022-12-18T09:34:12;-3273.30;83.00
73777;DHT22;62088;50.240;2.696;2022-12-18T09:36:39;-3273.30;83.00
73777;DHT22;62088;50.240;2.696;2022-12-18T09:39:06;-3273.40;83.00
73777;DHT22;62088;50.240;2.696;2022-12-18T09:41:42;-3273.40;82.80
73777;DHT22;62088;50.240;2.696;2022-12-18T09:44:18;-3273.40;82.80
73777;DHT22;62088;50.240;2.696;2022-12-18T09:47:06;-3273.40;82.80
73777;DHT22;62088;50.240;2.696;2022-12-18T09:49:43;-3273.40;82.80
73777;DHT22;62088;50.240;2.696;2022-12-18T09:52:33;-3273.50;82.90
73777;DHT22;62088;50.240;2.696;2022-12-18T09:55:25;-3273.50;82.80
73777;DHT22;62088;50.240;2.696;2022-12-18T09:58:26;-3273.50;82.70
73777;DHT22;62088;50.240;2.696;2022-12-18T10:00:55;-3273.50;82.80
73777;DHT22;62088;50.240;2.696;2022-12-18T10:03:22;-3273.50;82.80
73777;DHT22;62088;50.240;2.696;2022-12-18T10:06:04;-3273.50;82.80
73777;DHT22;62088;50.240;2.696;2022-12-18T10:22:53;-3273.60;82.90
73777;DHT22;62088;50.240;2.696;2022-12-18T10:25:38;-3273.60;82.90
73777;DHT22;62088;50.240;2.696;2022-12-18T10:28:14;-3273.60;82.80
73777;DHT22;62088;50.240;2.696;2022-12-18T10:30:42;-3273.70;82.60
73777;DHT22;62088;50.240;2.696;2022-12-18T10:33:19;-3273.70;82.50
73777;DHT22;62088;50.240;2.696;2022-12-18T10:35:49;-3273.70;82.60
73777;DHT22;62088;50.240;2.696;2022-12-18T10:43:26;-3273.70;82.40
73777;DHT22;62088;50.240;2.696;2022-12-18T10:51:22;-3273.80;82.50
73777;DHT22;62088;50.240;2.696;2022-12-18T10:53:59;-3273.80;82.50
73777;DHT22;62088;50.240;2.696;2022-12-18T10:56:30;-3273.80;82.50
73777;DHT22;62088;50.240;2.696;2022-12-18T10:59:04;-3273.80;82.60
73777;DHT22;62088;50.240;2.696;2022-12-18T11:04:26;-3273.90;82.70
73777;DHT22;62088;50.240;2.696;2022-12-18T11:07:06;-3273.90;82.60
73777;DHT22;62088;50.240;2.696;2022-12-18T11:09:35;-3273.90;82.50
73777;DHT22;62088;50.240;2.696;2022-12-18T11:12:08;-3274.00;82.40
73777;DHT22;62088;50.240;2.696;2022-12-18T11:17:30;-3274.00;82.50
73777;DHT22;62088;50.240;2.696;2022-12-18T11:19:59;-3274.00;82.50
73777;DHT22;62088;50.240;2.696;2022-12-18T11:22:29;-3274.00;82.50
73777;DHT22;62088;50.240;2.696;2022-12-18T11:28:02;-3274.10;82.40
73777;DHT22;62088;50.240;2.696;2022-12-18T11:30:35;-3274.10;82.50
73777;DHT22;62088;50.240;2.696;2022-12-18T11:33:16;-3274.10;82.40
73777;DHT22;62088;50.240;2.696;2022-12-18T11:35:55;-3274.10;82.20
73777;DHT22;62088;50.240;2.696;2022-12-18T11:38:28;-3274.10;82.30
73777;DHT22;62088;50.240;2.696;2022-12-18T11:43:39;-3274.20;82.30
73777;DHT22;62088;50.240;2.696;2022-12-18T11:46:12;-3274.20;82.20
73777;DHT22;62088;50.240;2.696;2022-12-18T11:48:52;-3274.20;82.30
73777;DHT22;62088;50.240;2.696;2022-12-18T11:51:35;-3274.30;82.50
73777;DHT22;62088;50.240;2.696;2022-12-18T11:54:13;-3274.30;82.50
73777;DHT22;62088;50.240;2.696;2022-12-18T11:56:47;-3274.30;82.50
73777;DHT22;62088;50.240;2.696;2022-12-18T12:02:42;-3274.30;82.60
73777;DHT22;62088;50.240;2.696;2022-12-18T12:16:32;-3274.50;82.40
73777;DHT22;62088;50.240;2.696;2022-12-18T12:21:45;-3274.50;82.30
73777;DHT22;62088;50.240;2.696;2022-12-18T12:35:55;-3274.60;82.30
73777;DHT22;62088;50.240;2.696;2022-12-18T12:38:31;-3274.60;82.20
73777;DHT22;62088;50.240;2.696;2022-12-18T12:41:05;-3274.60;82.30
73777;DHT22;62088;50.240;2.696;2022-12-18T12:43:56;-3274.60;82.30
73777;DHT22;62088;50.240;2.696;2022-12-18T12:46:24;-3274.60;82.30
73777;DHT22;62088;50.240;2.696;2022-12-18T12:48:58;-3274.60;82.20
73777;DHT22;62088;50.240;2.696;2022-12-18T12:51:35;-3274.60;82.30
73777;DHT22;62088;50.240;2.696;2022-12-18T12:54:09;-3274.60;82.40
73777;DHT22;62088;50.240;2.696;2022-12-18T13:02:06;-3274.70;82.30
73777;DHT22;62088;50.240;2.696;2022-12-18T13:07:45;-3274.70;82.40
73777;DHT22;62088;50.240;2.696;2022-12-18T13:15:39;-3274.80;82.40
73777;DHT22;62088;50.240;2.696;2022-12-18T13:18:14;-3274.80;82.50
73777;DHT22;62088;50.240;2.696;2022-12-18T13:23:51;-3274.80;82.40
73777;DHT22;62088;50.240;2.696;2022-12-18T13:28:54;-3274.90;82.30
73777;DHT22;62088;50.240;2.696;2022-12-18T13:34:16;-3274.90;82.30
73777;DHT22;62088;50.240;2.696;2022-12-18T13:40:00;-3274.90;82.40
73777;DHT22;62088;50.240;2.696;2022-12-18T13:42:38;-3274.90;82.20
73777;DHT22;62088;50.240;2.696;2022-12-18T13:45:42;-3275.00;82.30
73777;DHT22;62088;50.240;2.696;2022-12-18T13:48:18;-3275.00;82.20
73777;DHT22;62088;50.240;2.696;2022-12-18T13:50:59;-3275.00;82.30
73777;DHT22;62088;50.240;2.696;2022-12-18T13:53:34;-3275.10;82.40
73777;DHT22;62088;50.240;2.696;2022-12-18T13:56:04;-3275.10;82.50
73777;DHT22;62088;50.240;2.696;2022-12-18T13:58:34;-3275.10;82.50
73777;DHT22;62088;50.240;2.696;2022-12-18T14:01:02;-3275.10;82.50
73777;DHT22;62088;50.240;2.696;2022-12-18T14:03:31;-3275.10;82.50
73777;DHT22;62088;50.240;2.696;2022-12-18T14:06:05;-3275.10;82.50
73777;DHT22;62088;50.240;2.696;2022-12-18T14:08:37;-3275.20;82.40
73777;DHT22;62088;50.240;2.696;2022-12-18T14:11:06;-3275.20;82.40
73777;DHT22;62088;50.240;2.696;2022-12-18T14:13:41;-3275.20;82.40
73777;DHT22;62088;50.240;2.696;2022-12-18T14:16:11;-3275.20;82.40
73777;DHT22;62088;50.240;2.696;2022-12-18T14:18:57;-3275.30;82.50
73777;DHT22;62088;50.240;2.696;2022-12-18T14:21:47;-3275.20;82.50
73777;DHT22;62088;50.240;2.696;2022-12-18T14:24:21;-3275.30;82.50
73777;DHT22;62088;50.240;2.696;2022-12-18T14:26:50;-3275.30;82.60
73777;DHT22;62088;50.240;2.696;2022-12-18T14:29:23;-3275.30;82.60
73777;DHT22;62088;50.240;2.696;2022-12-18T14:34:45;-3275.30;82.60
73777;DHT22;62088;50.240;2.696;2022-12-18T14:37:14;-3275.30;82.60
73777;DHT22;62088;50.240;2.696;2022-12-18T14:40:02;-3275.30;82.60
73777;DHT22;62088;50.240;2.696;2022-12-18T14:42:37;-3275.30;82.60
73777;DHT22;62088;50.240;2.696;2022-12-18T14:45:36;-3275.30;82.60
73777;DHT22;62088;50.240;2.696;2022-12-18T14:51:03;-3275.40;82.70
73777;DHT22;62088;50.240;2.696;2022-12-18T14:53:47;-3275.30;82.80
73777;DHT22;62088;50.240;2.696;2022-12-18T14:58:54;-3275.40;83.00
73777;DHT22;62088;50.240;2.696;2022-12-18T15:03:55;-3275.40;83.00
73777;DHT22;62088;50.240;2.696;2022-12-18T15:06:30;-3275.40;83.00
73777;DHT22;62088;50.240;2.696;2022-12-18T15:08:59;-3275.40;83.00
73777;DHT22;62088;50.240;2.696;2022-12-18T15:11:42;-3275.40;83.20
73777;DHT22;62088;50.240;2.696;2022-12-18T15:14:32;-3275.40;83.20
73777;DHT22;62088;50.240;2.696;2022-12-18T15:17:05;-3275.50;83.20
73777;DHT22;62088;50.240;2.696;2022-12-18T15:19:37;-3275.40;83.30
73777;DHT22;62088;50.240;2.696;2022-12-18T15:22:36;-3275.50;83.30
73777;DHT22;62088;50.240;2.696;2022-12-18T15:25:34;-3275.50;83.30
73777;DHT22;62088;50.240;2.696;2022-12-18T15:28:04;-3275.50;83.40
73777;DHT22;62088;50.240;2.696;2022-12-18T15:33:32;-3275.50;83.50
73777;DHT22;62088;50.240;2.696;2022-12-18T15:36:04;-3275.50;83.50
73777;DHT22;62088;50.240;2.696;2022-12-18T15:38:32;-3275.60;83.60
73777;DHT22;62088;50.240;2.696;2022-12-18T15:40:59;-3275.50;83.60
73777;DHT22;62088;50.240;2.696;2022-12-18T15:43:26;-3275.60;83.60
73777;DHT22;62088;50.240;2.696;2022-12-18T15:48:47;-3275.60;83.90
73777;DHT22;62088;50.240;2.696;2022-12-18T15:51:24;-3275.60;83.90
73777;DHT22;62088;50.240;2.696;2022-12-18T15:53:55;-3275.60;83.90
73777;DHT22;62088;50.240;2.696;2022-12-18T15:56:23;-3275.60;84.00
73777;DHT22;62088;50.240;2.696;2022-12-18T15:59:11;-3275.70;84.00
73777;DHT22;62088;50.240;2.696;2022-12-18T16:01:39;-3275.70;83.90
73777;DHT22;62088;50.240;2.696;2022-12-18T16:04:12;-3275.70;83.90
73777;DHT22;62088;50.240;2.696;2022-12-18T16:06:40;-3275.70;83.90
73777;DHT22;62088;50.240;2.696;2022-12-18T16:09:27;-3275.70;83.80
73777;DHT22;62088;50.240;2.696;2022-12-18T16:11:54;-3275.70;83.90
73777;DHT22;62088;50.240;2.696;2022-12-18T16:14:39;-3275.80;83.90
73777;DHT22;62088;50.240;2.696;2022-12-18T16:17:10;-3275.80;83.90
73777;DHT22;62088;50.240;2.696;2022-12-18T16:19:38;-3275.80;83.90
73777;DHT22;62088;50.240;2.696;2022-12-18T16:22:05;-3275.80;83.90
73777;DHT22;62088;50.240;2.696;2022-12-18T16:24:33;-3275.80;84.00
73777;DHT22;62088;50.240;2.696;2022-12-18T16:27:02;-3275.90;83.90
73777;DHT22;62088;50.240;2.696;2022-12-18T16:29:30;-3275.90;83.90
73777;DHT22;62088;50.240;2.696;2022-12-18T16:31:58;-3275.90;83.90
73777;DHT22;62088;50.240;2.696;2022-12-18T16:34:33;-3275.90;84.00
73777;DHT22;62088;50.240;2.696;2022-12-18T16:37:04;-3275.90;84.00
73777;DHT22;62088;50.240;2.696;2022-12-18T16:39:35;-3275.90;84.00
73777;DHT22;62088;50.240;2.696;2022-12-18T16:44:39;-3276.00;84.00
73777;DHT22;62088;50.240;2.696;2022-12-18T16:47:06;-3276.00;84.10
73777;DHT22;62088;50.240;2.696;2022-12-18T16:49:36;-3276.00;84.10
73777;DHT22;62088;50.240;2.696;2022-12-18T16:52:04;-3276.10;84.20
73777;DHT22;62088;50.240;2.696;2022-12-18T16:54:31;-3276.10;84.20
73777;DHT22;62088;50.240;2.696;2022-12-18T16:57:00;-3276.10;84.30
73777;DHT22;62088;50.240;2.696;2022-12-18T16:59:27;-3276.10;84.30
73777;DHT22;62088;50.240;2.696;2022-12-18T17:01:55;-3276.10;84.40
73777;DHT22;62088;50.240;2.696;2022-12-18T17:04:23;-3276.20;84.50
73777;DHT22;62088;50.240;2.696;2022-12-18T17:06:50;-3276.20;84.50
73777;DHT22;62088;50.240;2.696;2022-12-18T17:09:21;-3276.20;84.60
73777;DHT22;62088;50.240;2.696;2022-12-18T17:11:52;-3276.20;84.60
73777;DHT22;62088;50.240;2.696;2022-12-18T17:14:22;-3276.30;84.60
73777;DHT22;62088;50.240;2.696;2022-12-18T17:16:50;-3276.30;84.80
73777;DHT22;62088;50.240;2.696;2022-12-18T17:19:37;-3276.30;84.80
73777;DHT22;62088;50.240;2.696;2022-12-18T17:22:05;-3276.40;84.90
73777;DHT22;62088;50.240;2.696;2022-12-18T17:24:34;-3276.40;84.90
73777;DHT22;62088;50.240;2.696;2022-12-18T17:27:02;-3276.40;84.90
73777;DHT22;62088;50.240;2.696;2022-12-18T17:29:30;-3276.40;85.00
73777;DHT22;62088;50.240;2.696;2022-12-18T17:31:57;-3276.40;85.10
73777;DHT22;62088;50.240;2.696;2022-12-18T17:34:26;-3276.50;85.10
73777;DHT22;62088;50.240;2.696;2022-12-18T17:36:53;-3276.50;85.10
73777;DHT22;62088;50.240;2.696;2022-12-18T17:39:21;-3276.50;85.20